sensor_id;sensor_type;location;lat;lon;timestamp;pressure;altitude;pressure_sealevel;temperature;humidity
38716;BME280;24833;49.324;8.694;2023-02-16T00:00:22;100896.97;;;0.39;81.47
38716;BME280;24833;49.324;8.694;2023-02-16T00:02:52;100900.56;;;0.38;81.47
38716;BME280;24833;49.324;8.694;2023-02-16T00:05:29;100896.38;;;0.36;81.26
38716;BME280;24833;49.324;8.694;2023-02-16T00:07:58;100888.66;;;0.33;81.38
38716;BME280;24833;49.324;8.694;2023-02-16T00:10:30;100881.75;;;0.32;81.44
38716;BME280;24833;49.324;8.694;2023-02-16T00:12:58;100874.91;;;0.29;81.31
38716;BME280;24833;49.324;8.694;2023-02-16T00:15:44;100870.69;;;0.26;81.36
38716;BME280;24833;49.324;8.694;2023-02-16T00:18:20;100885.72;;;0.24;81.08
38716;BME280;24833;49.324;8.694;2023-02-16T00:20:48;100896.34;;;0.23;81.38
38716;BME280;24833;49.324;8.694;2023-02-16T00:23:15;100904.31;;;0.21;81.36
38716;BME280;24833;49.324;8.694;2023-02-16T00:25:42;100904.50;;;0.18;81.09
38716;BME280;24833;49.324;8.694;2023-02-16T00:28:17;100899.47;;;0.15;81.15
38716;BME280;24833;49.324;8.694;2023-02-16T00:30:45;100891.03;;;0.10;80.88
38716;BME280;24833;49.324;8.694;2023-02-16T00:33:15;100887.88;;;0.05;80.95
38716;BME280;24833;49.324;8.694;2023-02-16T00:35:43;100900.47;;;0.00;81.03
38716;BME280;24833;49.324;8.694;2023-02-16T00:38:11;100905.19;;;-0.05;80.96
38716;BME280;24833;49.324;8.694;2023-02-16T00:40:39;100900.09;;;-0.08;81.05
38716;BME280;24833;49.324;8.694;2023-02-16T00:43:10;100887.19;;;-0.11;80.95
38716;BME280;24833;49.324;8.694;2023-02-16T00:45:39;100885.69;;;-0.15;81.06
38716;BME280;24833;49.324;8.694;2023-02-16T00:48:08;100889.47;;;-0.19;81.08
38716;BME280;24833;49.324;8.694;2023-02-16T00:50:35;100880.13;;;-0.23;80.76
38716;BME280;24833;49.324;8.694;2023-02-16T00:53:02;100887.31;;;-0.27;80.87
38716;BME280;24833;49.324;8.694;2023-02-16T00:55:34;100888.38;;;-0.30;80.89
38716;BME280;24833;49.324;8.694;2023-02-16T00:58:10;100892.13;;;-0.34;80.94
38716;BME280;24833;49.324;8.694;2023-02-16T01:00:54;100909.84;;;-0.37;81.04
38716;BME280;24833;49.324;8.694;2023-02-16T01:03:25;100917.91;;;-0.40;80.99
38716;BME280;24833;49.324;8.694;2023-02-16T01:05:52;100919.78;;;-0.42;80.67
38716;BME280;24833;49.324;8.694;2023-02-16T01:08:40;100910.34;;;-0.45;81.11
38716;BME280;24833;49.324;8.694;2023-02-16T01:11:26;100922.69;;;-0.47;81.05
38716;BME280;24833;49.324;8.694;2023-02-16T01:13:54;100922.78;;;-0.48;81.29
38716;BME280;24833;49.324;8.694;2023-02-16T01:16:50;100918.50;;;-0.49;81.01
38716;BME280;24833;49.324;8.694;2023-02-16T01:19:18;100922.91;;;-0.50;81.33
38716;BME280;24833;49.324;8.694;2023-02-16T01:21:46;100913.34;;;-0.51;81.38
38716;BME280;24833;49.324;8.694;2023-02-16T01:24:13;100904.66;;;-0.51;81.42
38716;BME280;24833;49.324;8.694;2023-02-16T01:26:46;100905.59;;;-0.52;81.31
38716;BME280;24833;49.324;8.694;2023-02-16T01:29:18;100908.22;;;-0.52;81.26
38716;BME280;24833;49.324;8.694;2023-02-16T01:31:48;100898.66;;;-0.53;81.15
38716;BME280;24833;49.324;8.694;2023-02-16T01:34:15;100896.09;;;-0.55;81.19
38716;BME280;24833;49.324;8.694;2023-02-16T01:36:45;100895.38;;;-0.57;81.19
38716;BME280;24833;49.324;8.694;2023-02-16T01:39:18;100899.13;;;-0.61;80.79
38716;BME280;24833;49.324;8.694;2023-02-16T01:42:11;100901.09;;;-0.65;80.84
38716;BME280;24833;49.324;8.694;2023-02-16T01:44:51;100903.00;;;-0.67;80.87
38716;BME280;24833;49.324;8.694;2023-02-16T01:47:47;100892.56;;;-0.68;80.89
38716;BME280;24833;49.324;8.694;2023-02-16T01:50:29;100899.69;;;-0.70;80.88
38716;BME280;24833;49.324;8.694;2023-02-16T01:53:08;100896.34;;;-0.72;80.99
38716;BME280;24833;49.324;8.694;2023-02-16T01:55:44;100896.50;;;-0.75;81.04
38716;BME280;24833;49.324;8.694;2023-02-16T01:58:35;100901.84;;;-0.77;80.91
38716;BME280;24833;49.324;8.694;2023-02-16T02:07:34;100886.41;;;-0.82;80.87
38716;BME280;24833;49.324;8.694;2023-02-16T02:13:42;100886.03;;;-0.90;80.73
38716;BME280;24833;49.324;8.694;2023-02-16T02:16:11;100897.47;;;-0.91;81.03
38716;BME280;24833;49.324;8.694;2023-02-16T02:18:42;100887.94;;;-0.92;81.03
38716;BME280;24833;49.324;8.694;2023-02-16T02:27:24;100872.47;;;-0.96;80.79
38716;BME280;24833;49.324;8.694;2023-02-16T02:38:51;100852.72;;;-1.02;80.77
38716;BME280;24833;49.324;8.694;2023-02-16T02:41:31;100853.66;;;-1.03;80.91
38716;BME280;24833;49.324;8.694;2023-02-16T02:44:22;100853.66;;;-1.03;81.39
38716;BME280;24833;49.324;8.694;2023-02-16T02:46:50;100854.88;;;-0.94;82.54
38716;BME280;24833;49.324;8.694;2023-02-16T02:49:18;100862.06;;;-0.84;82.22
38716;BME280;24833;49.324;8.694;2023-02-16T02:51:46;100856.16;;;-0.73;82.22
38716;BME280;24833;49.324;8.694;2023-02-16T02:54:18;100854.00;;;-0.66;82.00
38716;BME280;24833;49.324;8.694;2023-02-16T02:57:17;100870.28;;;-0.61;81.74
38716;BME280;24833;49.324;8.694;2023-02-16T03:00:09;100877.22;;;-0.60;81.40
38716;BME280;24833;49.324;8.694;2023-02-16T03:03:03;100861.50;;;-0.60;81.34
38716;BME280;24833;49.324;8.694;2023-02-16T03:05:33;100862.41;;;-0.61;81.57
38716;BME280;24833;49.324;8.694;2023-02-16T03:08:08;100867.84;;;-0.64;81.10
38716;BME280;24833;49.324;8.694;2023-02-16T03:10:51;100865.41;;;-0.67;80.85
38716;BME280;24833;49.324;8.694;2023-02-16T03:14:01;100863.09;;;-0.72;80.96
38716;BME280;24833;49.324;8.694;2023-02-16T03:16:36;100864.88;;;-0.72;81.07
38716;BME280;24833;49.324;8.694;2023-02-16T03:19:06;100857.84;;;-0.72;81.36
38716;BME280;24833;49.324;8.694;2023-02-16T03:21:54;100862.03;;;-0.69;81.54
38716;BME280;24833;49.324;8.694;2023-02-16T03:24:41;100855.69;;;-0.65;81.72
38716;BME280;24833;49.324;8.694;2023-02-16T03:27:39;100868.69;;;-0.64;81.70
38716;BME280;24833;49.324;8.694;2023-02-16T03:30:27;100861.38;;;-0.59;82.02
38716;BME280;24833;49.324;8.694;2023-02-16T03:32:55;100863.63;;;-0.52;82.37
38716;BME280;24833;49.324;8.694;2023-02-16T03:35:22;100855.53;;;-0.49;81.86
38716;BME280;24833;49.324;8.694;2023-02-16T03:37:50;100855.38;;;-0.46;82.02
38716;BME280;24833;49.324;8.694;2023-02-16T03:40:17;100861.25;;;-0.43;82.30
38716;BME280;24833;49.324;8.694;2023-02-16T03:43:02;100858.34;;;-0.38;81.92
38716;BME280;24833;49.324;8.694;2023-02-16T03:45:36;100860.63;;;-0.34;82.03
38716;BME280;24833;49.324;8.694;2023-02-16T03:48:04;100859.50;;;-0.30;82.11
38716;BME280;24833;49.324;8.694;2023-02-16T03:50:32;100866.25;;;-0.25;82.07
38716;BME280;24833;49.324;8.694;2023-02-16T03:52:59;100873.06;;;-0.23;81.95
38716;BME280;24833;49.324;8.694;2023-02-16T03:55:41;100872.91;;;-0.20;81.98
38716;BME280;24833;49.324;8.694;2023-02-16T03:58:12;100872.91;;;-0.20;81.85
38716;BME280;24833;49.324;8.694;2023-02-16T04:00:40;100870.28;;;-0.20;81.63
38716;BME280;24833;49.324;8.694;2023-02-16T04:03:07;100873.91;;;-0.22;81.65
38716;BME280;24833;49.324;8.694;2023-02-16T04:05:35;100886.09;;;-0.21;81.61
38716;BME280;24833;49.324;8.694;2023-02-16T04:08:03;100878.22;;;-0.21;81.43
38716;BME280;24833;49.324;8.694;2023-02-16T04:10:30;100877.50;;;-0.23;81.63
38716;BME280;24833;49.324;8.694;2023-02-16T04:12:57;100887.16;;;-0.24;81.84
38716;BME280;24833;49.324;8.694;2023-02-16T04:15:27;100884.53;;;-0.24;81.76
38716;BME280;24833;49.324;8.694;2023-02-16T04:17:54;100875.91;;;-0.26;81.67
38716;BME280;24833;49.324;8.694;2023-02-16T04:20:29;100883.13;;;-0.30;81.48
38716;BME280;24833;49.324;8.694;2023-02-16T04:22:56;100883.34;;;-0.33;81.44
38716;BME280;24833;49.324;8.694;2023-02-16T04:25:24;100871.34;;;-0.37;81.37
38716;BME280;24833;49.324;8.694;2023-02-16T04:27:52;100872.28;;;-0.38;81.49
38716;BME280;24833;49.324;8.694;2023-02-16T04:30:22;100875.94;;;-0.40;81.81
38716;BME280;24833;49.324;8.694;2023-02-16T04:32:50;100878.47;;;-0.39;81.95
38716;BME280;24833;49.324;8.694;2023-02-16T04:35:18;100883.72;;;-0.39;81.72
38716;BME280;24833;49.324;8.694;2023-02-16T04:37:45;100883.63;;;-0.37;81.79
38716;BME280;24833;49.324;8.694;2023-02-16T04:40:15;100887.94;;;-0.36;81.70
38716;BME280;24833;49.324;8.694;2023-02-16T04:42:43;100878.28;;;-0.36;82.10
38716;BME280;24833;49.324;8.694;2023-02-16T04:45:11;100883.41;;;-0.34;82.23
38716;BME280;24833;49.324;8.694;2023-02-16T04:47:39;100880.72;;;-0.33;82.03
38716;BME280;24833;49.324;8.694;2023-02-16T04:50:07;100883.13;;;-0.30;82.06
38716;BME280;24833;49.324;8.694;2023-02-16T04:52:35;100877.88;;;-0.30;81.92
38716;BME280;24833;49.324;8.694;2023-02-16T04:55:04;100871.69;;;-0.29;82.90
38716;BME280;24833;49.324;8.694;2023-02-16T04:57:32;100874.22;;;-0.27;82.50
38716;BME280;24833;49.324;8.694;2023-02-16T05:00:00;100874.97;;;-0.25;83.16
38716;BME280;24833;49.324;8.694;2023-02-16T05:02:27;100868.66;;;-0.22;82.31
38716;BME280;24833;49.324;8.694;2023-02-16T05:04:54;100867.53;;;-0.18;83.00
38716;BME280;24833;49.324;8.694;2023-02-16T05:07:21;100869.94;;;-0.15;83.11
38716;BME280;24833;49.324;8.694;2023-02-16T05:09:47;100877.66;;;-0.12;82.96
38716;BME280;24833;49.324;8.694;2023-02-16T05:12:14;100877.53;;;-0.11;82.52
38716;BME280;24833;49.324;8.694;2023-02-16T05:15:00;100876.47;;;-0.08;82.47
38716;BME280;24833;49.324;8.694;2023-02-16T05:17:28;100874.81;;;-0.09;82.70
38716;BME280;24833;49.324;8.694;2023-02-16T05:19:57;100883.63;;;-0.10;82.63
38716;BME280;24833;49.324;8.694;2023-02-16T05:22:26;100876.69;;;-0.11;82.40
38716;BME280;24833;49.324;8.694;2023-02-16T05:24:54;100884.56;;;-0.11;82.64
38716;BME280;24833;49.324;8.694;2023-02-16T05:27:24;100875.84;;;-0.12;82.65
38716;BME280;24833;49.324;8.694;2023-02-16T05:29:52;100885.41;;;-0.11;82.33
38716;BME280;24833;49.324;8.694;2023-02-16T05:32:20;100891.50;;;-0.10;82.30
38716;BME280;24833;49.324;8.694;2023-02-16T05:34:47;100874.81;;;-0.09;83.69
38716;BME280;24833;49.324;8.694;2023-02-16T05:37:16;100886.97;;;-0.08;82.78
38716;BME280;24833;49.324;8.694;2023-02-16T05:39:44;100875.53;;;-0.07;83.13
38716;BME280;24833;49.324;8.694;2023-02-16T05:42:12;100885.97;;;-0.06;82.72
38716;BME280;24833;49.324;8.694;2023-02-16T05:44:39;100887.66;;;-0.05;82.67
38716;BME280;24833;49.324;8.694;2023-02-16T05:47:06;100878.81;;;-0.04;82.68
38716;BME280;24833;49.324;8.694;2023-02-16T05:49:33;100882.28;;;-0.03;82.70
38716;BME280;24833;49.324;8.694;2023-02-16T05:52:01;100874.41;;;-0.03;82.71
38716;BME280;24833;49.324;8.694;2023-02-16T05:54:28;100870.94;;;-0.04;82.65
38716;BME280;24833;49.324;8.694;2023-02-16T05:56:55;100875.25;;;-0.03;82.62
38716;BME280;24833;49.324;8.694;2023-02-16T05:59:22;100887.25;;;0.02;83.64
38716;BME280;24833;49.324;8.694;2023-02-16T06:01:49;100887.75;;;0.07;84.61
38716;BME280;24833;49.324;8.694;2023-02-16T06:04:20;100891.03;;;0.10;83.96
38716;BME280;24833;49.324;8.694;2023-02-16T06:06:47;100892.53;;;0.14;83.81
38716;BME280;24833;49.324;8.694;2023-02-16T06:09:15;100900.94;;;0.19;83.77
38716;BME280;24833;49.324;8.694;2023-02-16T06:11:42;100885.94;;;0.21;83.31
38716;BME280;24833;49.324;8.694;2023-02-16T06:14:18;100900.53;;;0.25;83.24
38716;BME280;24833;49.324;8.694;2023-02-16T06:16:48;100901.47;;;0.24;83.14
38716;BME280;24833;49.324;8.694;2023-02-16T06:19:17;100897.06;;;0.25;83.08
38716;BME280;24833;49.324;8.694;2023-02-16T06:21:45;100901.47;;;0.24;83.53
38716;BME280;24833;49.324;8.694;2023-02-16T06:24:13;100901.47;;;0.24;83.32
38716;BME280;24833;49.324;8.694;2023-02-16T06:26:40;100910.19;;;0.25;83.07
38716;BME280;24833;49.324;8.694;2023-02-16T06:29:08;100907.69;;;0.23;82.88
38716;BME280;24833;49.324;8.694;2023-02-16T06:31:35;100907.69;;;0.23;83.27
38716;BME280;24833;49.324;8.694;2023-02-16T06:34:03;100909.34;;;0.24;83.37
38716;BME280;24833;49.324;8.694;2023-02-16T06:36:31;100916.28;;;0.25;83.16
38716;BME280;24833;49.324;8.694;2023-02-16T06:38:59;100924.09;;;0.27;83.49
38716;BME280;24833;49.324;8.694;2023-02-16T06:41:26;100922.09;;;0.31;83.60
38716;BME280;24833;49.324;8.694;2023-02-16T06:44:07;100913.25;;;0.32;83.81
38716;BME280;24833;49.324;8.694;2023-02-16T06:46:34;100922.81;;;0.33;83.72
38716;BME280;24833;49.324;8.694;2023-02-16T06:49:20;100921.78;;;0.35;83.46
38716;BME280;24833;49.324;8.694;2023-02-16T06:52:03;100917.38;;;0.36;83.16
38716;BME280;24833;49.324;8.694;2023-02-16T06:54:30;100928.72;;;0.36;83.38
38716;BME280;24833;49.324;8.694;2023-02-16T06:56:57;100916.44;;;0.37;83.52
38716;BME280;24833;49.324;8.694;2023-02-16T06:59:24;100916.53;;;0.35;83.86
38716;BME280;24833;49.324;8.694;2023-02-16T07:01:51;100916.44;;;0.37;83.95
38716;BME280;24833;49.324;8.694;2023-02-16T07:04:18;100913.69;;;0.38;84.60
38716;BME280;24833;49.324;8.694;2023-02-16T07:07:03;100924.97;;;0.40;83.77
38716;BME280;24833;49.324;8.694;2023-02-16T07:09:49;100938.72;;;0.44;83.84
38716;BME280;24833;49.324;8.694;2023-02-16T07:12:35;100950.91;;;0.45;83.66
38716;BME280;24833;49.324;8.694;2023-02-16T07:15:21;100946.41;;;0.47;83.91
38716;BME280;24833;49.324;8.694;2023-02-16T07:17:48;100934.00;;;0.49;83.96
38716;BME280;24833;49.324;8.694;2023-02-16T07:20:15;100943.47;;;0.51;83.78
38716;BME280;24833;49.324;8.694;2023-02-16T07:22:44;100928.34;;;0.55;84.14
38716;BME280;24833;49.324;8.694;2023-02-16T07:25:11;100946.53;;;0.58;84.24
38716;BME280;24833;49.324;8.694;2023-02-16T07:27:38;100942.75;;;0.62;85.03
38716;BME280;24833;49.324;8.694;2023-02-16T07:30:05;100948.75;;;0.64;84.46
38716;BME280;24833;49.324;8.694;2023-02-16T07:32:34;100951.19;;;0.67;84.11
38716;BME280;24833;49.324;8.694;2023-02-16T07:35:01;100948.34;;;0.70;84.10
38716;BME280;24833;49.324;8.694;2023-02-16T07:37:28;100952.53;;;0.73;84.27
38716;BME280;24833;49.324;8.694;2023-02-16T07:39:56;100946.97;;;0.77;84.58
38716;BME280;24833;49.324;8.694;2023-02-16T07:42:23;100942.13;;;0.84;85.58
38716;BME280;24833;49.324;8.694;2023-02-16T07:44:51;100945.31;;;0.89;85.05
38716;BME280;24833;49.324;8.694;2023-02-16T07:47:17;100950.25;;;0.94;84.83
38716;BME280;24833;49.324;8.694;2023-02-16T07:49:44;100947.09;;;1.01;84.80
38716;BME280;24833;49.324;8.694;2023-02-16T07:52:12;100941.50;;;1.06;84.72
38716;BME280;24833;49.324;8.694;2023-02-16T07:54:39;100948.97;;;1.12;85.02
38716;BME280;24833;49.324;8.694;2023-02-16T07:57:06;100952.88;;;1.19;85.03
38716;BME280;24833;49.324;8.694;2023-02-16T07:59:33;100942.75;;;1.26;85.38
38716;BME280;24833;49.324;8.694;2023-02-16T08:02:00;100954.66;;;1.31;85.33
38716;BME280;24833;49.324;8.694;2023-02-16T08:04:27;100951.47;;;1.39;85.38
38716;BME280;24833;49.324;8.694;2023-02-16T08:06:54;100943.56;;;1.52;86.44
38716;BME280;24833;49.324;8.694;2023-02-16T08:09:21;100943.13;;;1.58;86.09
38716;BME280;24833;49.324;8.694;2023-02-16T08:11:48;100934.81;;;1.64;85.89
38716;BME280;24833;49.324;8.694;2023-02-16T08:14:15;100945.75;;;1.71;86.02
38716;BME280;24833;49.324;8.694;2023-02-16T08:16:42;100947.00;;;1.78;86.03
38716;BME280;24833;49.324;8.694;2023-02-16T08:19:09;100949.06;;;1.85;86.32
38716;BME280;24833;49.324;8.694;2023-02-16T08:21:38;100953.91;;;1.91;86.00
38716;BME280;24833;49.324;8.694;2023-02-16T08:24:07;100949.97;;;1.97;86.04
38716;BME280;24833;49.324;8.694;2023-02-16T08:26:38;100951.09;;;2.06;86.55
38716;BME280;24833;49.324;8.694;2023-02-16T08:29:06;100958.44;;;2.13;86.56
38716;BME280;24833;49.324;8.694;2023-02-16T08:31:35;100958.00;;;2.19;86.28
38716;BME280;24833;49.324;8.694;2023-02-16T08:34:04;100969.69;;;2.28;86.42
38716;BME280;24833;49.324;8.694;2023-02-16T08:36:35;100963.00;;;2.35;86.76
38716;BME280;24833;49.324;8.694;2023-02-16T08:39:13;100969.38;;;2.44;87.37
38716;BME280;24833;49.324;8.694;2023-02-16T08:41:42;100960.91;;;2.52;87.04
38716;BME280;24833;49.324;8.694;2023-02-16T08:44:11;100962.97;;;2.59;87.14
38716;BME280;24833;49.324;8.694;2023-02-16T08:46:42;100957.09;;;2.67;87.04
38716;BME280;24833;49.324;8.694;2023-02-16T08:49:10;100957.47;;;2.73;87.11
38716;BME280;24833;49.324;8.694;2023-02-16T08:51:45;100955.13;;;2.82;87.56
38716;BME280;24833;49.324;8.694;2023-02-16T08:54:21;100961.50;;;2.90;87.22
38716;BME280;24833;49.324;8.694;2023-02-16T08:56:50;100963.66;;;2.96;87.35
38716;BME280;24833;49.324;8.694;2023-02-16T08:59:19;100962.38;;;3.02;87.04
38716;BME280;24833;49.324;8.694;2023-02-16T09:01:47;100963.69;;;3.08;87.29
38716;BME280;24833;49.324;8.694;2023-02-16T09:04:15;100974.72;;;3.13;87.19
38716;BME280;24833;49.324;8.694;2023-02-16T09:06:45;100971.63;;;3.19;87.22
38716;BME280;24833;49.324;8.694;2023-02-16T09:09:14;100975.47;;;3.26;87.26
38716;BME280;24833;49.324;8.694;2023-02-16T09:11:41;100972.34;;;3.32;87.11
38716;BME280;24833;49.324;8.694;2023-02-16T09:14:08;100968.25;;;3.39;87.68
38716;BME280;24833;49.324;8.694;2023-02-16T09:16:36;100954.72;;;3.44;87.56
38716;BME280;24833;49.324;8.694;2023-02-16T09:19:06;100952.44;;;3.50;87.23
38716;BME280;24833;49.324;8.694;2023-02-16T09:21:33;100949.19;;;3.58;87.50
38716;BME280;24833;49.324;8.694;2023-02-16T09:24:03;100944.13;;;3.66;87.63
38716;BME280;24833;49.324;8.694;2023-02-16T09:26:33;100947.13;;;3.73;87.72
38716;BME280;24833;49.324;8.694;2023-02-16T09:29:01;100951.91;;;3.79;87.93
38716;BME280;24833;49.324;8.694;2023-02-16T09:31:32;100960.19;;;3.86;87.43
38716;BME280;24833;49.324;8.694;2023-02-16T09:34:08;100967.63;;;3.92;87.50
38716;BME280;24833;49.324;8.694;2023-02-16T09:36:39;100962.00;;;3.96;87.57
38716;BME280;24833;49.324;8.694;2023-02-16T09:39:07;100962.34;;;4.03;87.52
38716;BME280;24833;49.324;8.694;2023-02-16T09:47:03;100951.47;;;4.17;87.80
38716;BME280;24833;49.324;8.694;2023-02-16T09:49:41;100959.75;;;4.24;87.79
38716;BME280;24833;49.324;8.694;2023-02-16T09:52:37;100968.59;;;4.34;88.36
38716;BME280;24833;49.324;8.694;2023-02-16T09:55:16;100969.06;;;4.39;88.11
38716;BME280;24833;49.324;8.694;2023-02-16T09:58:11;100975.53;;;4.46;88.01
38716;BME280;24833;49.324;8.694;2023-02-16T10:00:54;100967.78;;;4.54;88.37
38716;BME280;24833;49.324;8.694;2023-02-16T10:03:34;100966.91;;;4.65;88.93
38716;BME280;24833;49.324;8.694;2023-02-16T10:08:44;100961.16;;;4.81;88.44
38716;BME280;24833;49.324;8.694;2023-02-16T10:11:25;100953.44;;;4.89;88.81
38716;BME280;24833;49.324;8.694;2023-02-16T10:23:43;100941.16;;;5.39;89.80
38716;BME280;24833;49.324;8.694;2023-02-16T10:28:56;100935.81;;;5.60;89.63
38716;BME280;24833;49.324;8.694;2023-02-16T10:31:41;100934.72;;;5.72;89.45
38716;BME280;24833;49.324;8.694;2023-02-16T10:34:51;100930.31;;;5.83;89.81
38716;BME280;24833;49.324;8.694;2023-02-16T10:37:44;100929.50;;;5.92;89.88
38716;BME280;24833;49.324;8.694;2023-02-16T10:43:00;100931.34;;;6.11;89.69
38716;BME280;24833;49.324;8.694;2023-02-16T10:45:54;100938.75;;;6.26;89.77
38716;BME280;24833;49.324;8.694;2023-02-16T10:48:23;100930.09;;;6.34;89.76
38716;BME280;24833;49.324;8.694;2023-02-16T10:51:13;100929.56;;;6.50;89.99
38716;BME280;24833;49.324;8.694;2023-02-16T10:53:58;100933.03;;;6.60;90.31
38716;BME280;24833;49.324;8.694;2023-02-16T10:56:54;100936.22;;;6.73;90.86
38716;BME280;24833;49.324;8.694;2023-02-16T10:59:44;100938.44;;;6.88;90.45
38716;BME280;24833;49.324;8.694;2023-02-16T11:02:34;100933.97;;;6.98;90.45
38716;BME280;24833;49.324;8.694;2023-02-16T11:07:57;100922.56;;;7.15;90.38
38716;BME280;24833;49.324;8.694;2023-02-16T11:10:43;100910.78;;;7.27;90.92
38716;BME280;24833;49.324;8.694;2023-02-16T11:13:31;100917.16;;;7.44;91.76
38716;BME280;24833;49.324;8.694;2023-02-16T11:16:10;100917.34;;;7.60;91.44
38716;BME280;24833;49.324;8.694;2023-02-16T11:18:42;100904.41;;;7.75;91.58
38716;BME280;24833;49.324;8.694;2023-02-16T11:21:12;100898.59;;;7.89;91.81
38716;BME280;24833;49.324;8.694;2023-02-16T11:23:41;100898.38;;;8.01;91.23
38716;BME280;24833;49.324;8.694;2023-02-16T11:28:43;100897.78;;;8.25;92.25
38716;BME280;24833;49.324;8.694;2023-02-16T11:36:42;100878.22;;;8.69;91.67
38716;BME280;24833;49.324;8.694;2023-02-16T11:41:52;100881.59;;;9.06;93.22
38716;BME280;24833;49.324;8.694;2023-02-16T11:44:39;100874.00;;;9.19;93.17
38716;BME280;24833;49.324;8.694;2023-02-16T11:47:34;100860.41;;;9.30;92.64
38716;BME280;24833;49.324;8.694;2023-02-16T11:50:27;100858.78;;;9.37;92.49
38716;BME280;24833;49.324;8.694;2023-02-16T11:55:40;100859.09;;;9.42;91.51
38716;BME280;24833;49.324;8.694;2023-02-16T12:15:35;100825.53;;;9.82;93.01
38716;BME280;24833;49.324;8.694;2023-02-16T12:18:29;100821.91;;;9.91;92.87
38716;BME280;24833;49.324;8.694;2023-02-16T12:24:18;100822.72;;;10.00;92.67
38716;BME280;24833;49.324;8.694;2023-02-16T12:27:15;100821.06;;;10.07;92.00
38716;BME280;24833;49.324;8.694;2023-02-16T12:29:54;100813.22;;;10.22;93.10
38716;BME280;24833;49.324;8.694;2023-02-16T12:32:55;100809.91;;;10.36;93.31
38716;BME280;24833;49.324;8.694;2023-02-16T12:36:22;100814.41;;;10.52;94.03
38716;BME280;24833;49.324;8.694;2023-02-16T12:42:01;100794.97;;;10.82;94.54
38716;BME280;24833;49.324;8.694;2023-02-16T12:44:57;100789.56;;;10.99;94.25
38716;BME280;24833;49.324;8.694;2023-02-16T12:50:24;100782.16;;;11.17;93.27
38716;BME280;24833;49.324;8.694;2023-02-16T12:53:00;100782.63;;;11.21;92.35
38716;BME280;24833;49.324;8.694;2023-02-16T12:55:43;100777.91;;;11.31;92.44
38716;BME280;24833;49.324;8.694;2023-02-16T12:58:39;100781.50;;;11.46;93.62
38716;BME280;24833;49.324;8.694;2023-02-16T13:01:20;100774.75;;;11.58;93.13
38716;BME280;24833;49.324;8.694;2023-02-16T13:07:15;100775.25;;;11.77;92.11
38716;BME280;24833;49.324;8.694;2023-02-16T13:10:02;100778.44;;;11.80;90.69
38716;BME280;24833;49.324;8.694;2023-02-16T13:15:45;100776.91;;;11.86;90.37
38716;BME280;24833;49.324;8.694;2023-02-16T13:18:31;100764.09;;;11.96;91.12
38716;BME280;24833;49.324;8.694;2023-02-16T13:21:07;100767.09;;;12.01;90.27
38716;BME280;24833;49.324;8.694;2023-02-16T13:24:02;100769.16;;;12.14;90.82
38716;BME280;24833;49.324;8.694;2023-02-16T13:27:00;100750.81;;;12.25;90.71
38716;BME280;24833;49.324;8.694;2023-02-16T13:30:08;100758.84;;;12.40;91.59
38716;BME280;24833;49.324;8.694;2023-02-16T13:39:04;100744.28;;;12.58;89.92
38716;BME280;24833;49.324;8.694;2023-02-16T13:44:51;100736.78;;;12.53;89.03
38716;BME280;24833;49.324;8.694;2023-02-16T13:47:28;100741.31;;;12.52;88.46
38716;BME280;24833;49.324;8.694;2023-02-16T13:50:02;100742.50;;;12.50;87.69
38716;BME280;24833;49.324;8.694;2023-02-16T13:52:35;100740.84;;;12.49;87.28
38716;BME280;24833;49.324;8.694;2023-02-16T13:55:07;100729.69;;;12.45;87.76
38716;BME280;24833;49.324;8.694;2023-02-16T14:00:44;100718.13;;;12.45;89.06
38716;BME280;24833;49.324;8.694;2023-02-16T14:16:25;100711.47;;;12.41;87.29
38716;BME280;24833;49.324;8.694;2023-02-16T14:19:00;100712.69;;;12.38;86.56
38716;BME280;24833;49.324;8.694;2023-02-16T14:21:42;100703.44;;;12.41;87.41
38716;BME280;24833;49.324;8.694;2023-02-16T14:24:32;100707.22;;;12.46;88.24
38716;BME280;24833;49.324;8.694;2023-02-16T14:27:06;100709.44;;;12.43;86.82
38716;BME280;24833;49.324;8.694;2023-02-16T14:30:00;100697.72;;;12.44;87.86
38716;BME280;24833;49.324;8.694;2023-02-16T14:32:31;100689.84;;;12.42;86.23
38716;BME280;24833;49.324;8.694;2023-02-16T14:35:20;100686.16;;;12.43;87.08
38716;BME280;24833;49.324;8.694;2023-02-16T14:37:57;100693.56;;;12.41;85.93
38716;BME280;24833;49.324;8.694;2023-02-16T14:43:32;100693.75;;;12.40;86.06
38716;BME280;24833;49.324;8.694;2023-02-16T14:49:17;100686.81;;;12.31;86.32
38716;BME280;24833;49.324;8.694;2023-02-16T14:55:52;100682.34;;;12.23;86.42
38716;BME280;24833;49.324;8.694;2023-02-16T15:01:12;100702.03;;;12.15;85.46
38716;BME280;24833;49.324;8.694;2023-02-16T15:03:55;100695.00;;;12.14;85.75
38716;BME280;24833;49.324;8.694;2023-02-16T15:06:45;100690.88;;;12.12;85.30
38716;BME280;24833;49.324;8.694;2023-02-16T15:09:25;100689.38;;;12.09;84.68
38716;BME280;24833;49.324;8.694;2023-02-16T15:11:57;100692.41;;;12.06;84.18
38716;BME280;24833;49.324;8.694;2023-02-16T15:14:49;100685.56;;;12.04;83.61
38716;BME280;24833;49.324;8.694;2023-02-16T15:17:46;100680.41;;;12.02;85.12
38716;BME280;24833;49.324;8.694;2023-02-16T15:23:15;100669.59;;;11.95;84.13
38716;BME280;24833;49.324;8.694;2023-02-16T15:25:59;100669.13;;;11.92;83.59
38716;BME280;24833;49.324;8.694;2023-02-16T15:28:32;100676.50;;;11.90;83.22
38716;BME280;24833;49.324;8.694;2023-02-16T15:31:11;100671.53;;;11.87;83.07
38716;BME280;24833;49.324;8.694;2023-02-16T15:33:54;100670.88;;;11.85;83.52
38716;BME280;24833;49.324;8.694;2023-02-16T15:36:34;100685.44;;;11.82;83.62
38716;BME280;24833;49.324;8.694;2023-02-16T15:39:12;100676.91;;;11.79;82.99
38716;BME280;24833;49.324;8.694;2023-02-16T15:41:45;100676.25;;;11.77;82.68
38716;BME280;24833;49.324;8.694;2023-02-16T15:44:29;100672.94;;;11.74;84.07
38716;BME280;24833;49.324;8.694;2023-02-16T15:47:11;100679.50;;;11.72;82.92
38716;BME280;24833;49.324;8.694;2023-02-16T15:49:40;100685.38;;;11.67;82.64
38716;BME280;24833;49.324;8.694;2023-02-16T15:52:13;100676.69;;;11.65;82.75